sensor_id;sensor_type;location;lat;lon;timestamp;P1;durP1;ratioP1;P2;durP2;ratioP2
72479;SDS011;60503;43.540;-5.510;2023-05-23T04:48:09;23.90;;;7.75;;
72479;SDS011;60503;43.540;-5.510;2023-05-23T04:50:37;23.13;;;7.57;;
72479;SDS011;60503;43.540;-5.510;2023-05-23T04:56:15;21.45;;;7.93;;
72479;SDS011;60503;43.540;-5.510;2023-05-23T04:58:47;20.02;;;7.68;;
72479;SDS011;60503;43.540;-5.510;2023-05-23T05:01:13;24.13;;;7.65;;
72479;SDS011;60503;43.540;-5.510;2023-05-23T05:03:39;14.73;;;6.65;;
72479;SDS011;60503;43.540;-5.510;2023-05-23T05:06:05;18.02;;;6.78;;
72479;SDS011;60503;43.540;-5.510;2023-05-23T05:08:31;19.25;;;6.90;;
72479;SDS011;60503;43.540;-5.510;2023-05-23T05:10:56;25.98;;;7.78;;
72479;SDS011;60503;43.540;-5.510;2023-05-23T05:13:22;22.45;;;7.68;;
72479;SDS011;60503;43.540;-5.510;2023-05-23T05:15:48;14.75;;;7.90;;
72479;SDS011;60503;43.540;-5.510;2023-05-23T05:18:32;20.55;;;8.07;;
72479;SDS011;60503;43.540;-5.510;2023-05-23T05:20:57;17.60;;;8.65;;
72479;SDS011;60503;43.540;-5.510;2023-05-23T05:23:24;20.65;;;7.10;;
72479;SDS011;60503;43.540;-5.510;2023-05-23T05:25:50;26.33;;;8.90;;
72479;SDS011;60503;43.540;-5.510;2023-05-23T05:28:15;23.48;;;8.68;;
72479;SDS011;60503;43.540;-5.510;2023-05-23T05:30:41;27.73;;;9.43;;
72479;SDS011;60503;43.540;-5.510;2023-05-23T05:33:07;22.23;;;8.38;;
72479;SDS011;60503;43.540;-5.510;2023-05-23T05:35:35;12.77;;;8.43;;
72479;SDS011;60503;43.540;-5.510;2023-05-23T05:38:04;21.25;;;9.00;;
72479;SDS011;60503;43.540;-5.510;2023-05-23T05:40:31;20.48;;;8.43;;
72479;SDS011;60503;43.540;-5.510;2023-05-23T05:42:56;19.70;;;8.48;;
72479;SDS011;60503;43.540;-5.510;2023-05-23T05:45:22;17.65;;;8.48;;
72479;SDS011;60503;43.540;-5.510;2023-05-23T05:47:47;21.52;;;8.05;;
72479;SDS011;60503;43.540;-5.510;2023-05-23T12:44:18;17.05;;;8.68;;
72479;SDS011;60503;43.540;-5.510;2023-05-23T12:46:44;14.57;;;6.88;;
72479;SDS011;60503;43.540;-5.510;2023-05-23T12:49:10;18.67;;;8.20;;
72479;SDS011;60503;43.540;-5.510;2023-05-23T12:51:36;21.02;;;7.80;;
72479;SDS011;60503;43.540;-5.510;2023-05-23T12:54:01;19.75;;;9.63;;
72479;SDS011;60503;43.540;-5.510;2023-05-23T12:56:27;18.15;;;9.02;;
72479;SDS011;60503;43.540;-5.510;2023-05-23T12:58:52;15.80;;;8.90;;
72479;SDS011;60503;43.540;-5.510;2023-05-23T13:01:18;19.27;;;8.60;;
72479;SDS011;60503;43.540;-5.510;2023-05-23T13:03:44;20.23;;;6.55;;
72479;SDS011;60503;43.540;-5.510;2023-05-23T13:09:32;18.90;;;7.13;;
72479;SDS011;60503;43.540;-5.510;2023-05-23T13:11:57;16.30;;;6.72;;
72479;SDS011;60503;43.540;-5.510;2023-05-23T13:17:45;10.18;;;6.18;;
72479;SDS011;60503;43.540;-5.510;2023-05-23T13:20:10;18.58;;;6.97;;
72479;SDS011;60503;43.540;-5.510;2023-05-23T13:22:38;19.02;;;7.43;;
72479;SDS011;60503;43.540;-5.510;2023-05-23T13:25:05;18.30;;;6.93;;
72479;SDS011;60503;43.540;-5.510;2023-05-23T13:27:32;12.90;;;6.78;;
72479;SDS011;60503;43.540;-5.510;2023-05-23T13:29:58;18.17;;;7.25;;
72479;SDS011;60503;43.540;-5.510;2023-05-23T13:32:24;17.73;;;7.70;;
72479;SDS011;60503;43.540;-5.510;2023-05-23T13:38:11;20.20;;;6.63;;
72479;SDS011;60503;43.540;-5.510;2023-05-23T13:40:37;17.05;;;7.10;;
72479;SDS011;60503;43.540;-5.510;2023-05-23T13:43:03;15.07;;;6.15;;
72479;SDS011;60503;43.540;-5.510;2023-05-23T13:45:28;12.68;;;6.03;;
72479;SDS011;60503;43.540;-5.510;2023-05-23T13:47:55;19.38;;;6.22;;
72479;SDS011;60503;43.540;-5.510;2023-05-23T13:50:23;20.42;;;6.25;;
72479;SDS011;60503;43.540;-5.510;2023-05-23T13:52:49;14.43;;;6.00;;
72479;SDS011;60503;43.540;-5.510;2023-05-23T13:55:15;20.75;;;6.85;;
72479;SDS011;60503;43.540;-5.510;2023-05-23T13:57:41;13.63;;;6.32;;
